Time;durP1;ratioP1;P1;durP2;ratioP2;P2;SDS_P1;SDS_P2;PMS_P1;PMS_P2;Temp;Humidity;BMP_temperature;BMP_pressure;BME280_temperature;BME280_humidity;BME280_pressure;Samples;Min_cycle;Max_cycle;Signal;HPM_P1;HPM_P2
2023/08/10 00:02:13;;;;;;;3.33;2.60;;;15.60;22.20;;;;;;4974390;28;20563;-69
2023/08/10 00:04:39;;;;;;;3.70;3.10;;;15.50;22.20;;;;;;4974678;28;20432;-69
2023/08/10 00:07:05;;;;;;;4.40;3.00;;;15.40;22.60;;;;;;4974650;28;20420;-68
2023/08/10 00:09:30;;;;;;;3.50;2.47;;;15.30;23.30;;;;;;4974587;28;20216;-70
2023/08/10 00:11:56;;;;;;;2.57;1.97;;;15.20;23.50;;;;;;4974238;28;20181;-68
2023/08/10 00:14:21;;;;;;;2.37;1.80;;;15.10;23.00;;;;;;4974544;28;20216;-69
2023/08/10 00:16:47;;;;;;;2.20;1.70;;;15.10;23.50;;;;;;4974477;28;20188;-69
2023/08/10 00:19:12;;;;;;;2.80;2.03;;;15.00;23.70;;;;;;4974285;28;20177;-70
2023/08/10 00:21:38;;;;;;;4.43;2.10;;;14.90;23.70;;;;;;4972827;28;20205;-69
2023/08/10 00:24:04;;;;;;;2.30;1.57;;;14.90;24.70;;;;;;4974501;28;20212;-68
2023/08/10 00:26:30;;;;;;;2.57;1.80;;;14.70;24.60;;;;;;4974407;28;20187;-69
2023/08/10 00:28:56;;;;;;;3.00;1.97;;;14.60;25.80;;;;;;4974297;28;20192;-69
2023/08/10 00:31:21;;;;;;;3.07;1.90;;;14.60;27.10;;;;;;4974112;28;20424;-69
2023/08/10 00:33:47;;;;;;;3.07;2.10;;;14.50;28.00;;;;;;4973864;28;20205;-69
2023/08/10 00:36:12;;;;;;;4.47;3.00;;;14.30;30.20;;;;;;4974319;28;20193;-69
2023/08/10 00:38:39;;;;;;;3.03;2.10;;;14.30;31.60;;;;;;4974102;28;20187;-69
2023/08/10 00:41:05;;;;;;;3.90;2.37;;;14.30;31.70;;;;;;4973919;28;20556;-69
2023/08/10 00:43:30;;;;;;;2.93;1.40;;;14.20;30.20;;;;;;4972409;28;20451;-69
2023/08/10 00:45:57;;;;;;;3.53;2.00;;;14.20;31.60;;;;;;4974029;28;20183;-69
2023/08/10 00:48:24;;;;;;;2.80;1.60;;;14.10;31.90;;;;;;4973869;28;20184;-69
2023/08/10 00:50:50;;;;;;;7.03;2.17;;;14.10;31.90;;;;;;4973814;28;20992;-70
2023/08/10 00:53:18;;;;;;;2.17;1.40;;;14.00;32.30;;;;;;4972207;28;20448;-69
2023/08/10 00:55:45;;;;;;;3.00;2.30;;;14.00;33.10;;;;;;4973188;28;20800;-68
2023/08/10 00:58:11;;;;;;;5.60;2.70;;;14.00;33.20;;;;;;4973730;28;20427;-69
2023/08/10 01:00:38;;;;;;;6.13;2.70;;;14.00;34.50;;;;;;4973694;28;20522;-69
2023/08/10 01:03:04;;;;;;;2.87;2.53;;;14.10;34.60;;;;;;4973206;28;20481;-69
2023/08/10 01:05:38;;;;;;;2.90;2.20;;;14.10;34.60;;;;;;4973648;28;20423;-69
2023/08/10 01:08:38;;;;;;;5.70;2.60;;;14.10;34.70;;;;;;4973618;28;20507;-69
2023/08/10 01:11:07;;;;;;;5.13;2.70;;;14.00;35.90;;;;;;4973534;28;20420;-69
2023/08/10 01:13:37;;;;;;;4.17;2.60;;;13.90;37.60;;;;;;4973055;28;20833;-69
2023/08/10 01:16:08;;;;;;;4.00;2.27;;;13.90;38.40;;;;;;4973849;28;20409;-70
2023/08/10 01:18:35;;;;;;;3.50;2.67;;;13.90;39.10;;;;;;4973441;28;20790;-69
2023/08/10 01:21:09;;;;;;;3.97;2.43;;;13.90;38.80;;;;;;4973351;28;20425;-70
2023/08/10 01:23:39;;;;;;;3.30;2.10;;;13.90;38.70;;;;;;4973823;28;20471;-70
2023/08/10 01:26:05;;;;;;;3.60;2.30;;;13.80;39.50;;;;;;4973293;28;20431;-71
2023/08/10 01:28:33;;;;;;;3.80;2.63;;;13.80;39.10;;;;;;4973295;28;20420;-71
2023/08/10 01:30:59;;;;;;;5.40;2.67;;;13.90;39.20;;;;;;4973335;28;20511;-71
2023/08/10 01:33:26;;;;;;;3.70;2.90;;;13.80;40.30;;;;;;4972942;28;20451;-71
2023/08/10 01:35:52;;;;;;;3.30;2.10;;;13.80;40.20;;;;;;4973272;28;20945;-71
2023/08/10 01:38:18;;;;;;;4.10;2.40;;;13.80;40.40;;;;;;4973157;28;20472;-71
2023/08/10 01:40:43;;;;;;;4.87;2.77;;;13.70;41.10;;;;;;4973150;28;20833;-71
2023/08/10 01:43:09;;;;;;;6.43;3.83;;;13.70;40.60;;;;;;4972794;28;20226;-70
2023/08/10 01:45:35;;;;;;;3.93;2.90;;;13.60;43.00;;;;;;4971813;28;20178;-71
2023/08/10 01:48:03;;;;;;;3.33;2.60;;;13.60;43.10;;;;;;4973138;28;20240;-72
2023/08/10 01:50:31;;;;;;;2.30;1.63;;;13.60;44.40;;;;;;4973272;28;20238;-71
2023/08/10 01:53:05;;;;;;;3.20;2.20;;;13.50;44.40;;;;;;4973114;28;20438;-70
2023/08/10 01:55:31;;;;;;;3.00;2.70;;;13.40;45.40;;;;;;4973453;28;20418;-72
2023/08/10 01:57:57;;;;;;;3.97;2.77;;;13.40;45.00;;;;;;4973004;28;20416;-72
2023/08/10 02:00:23;;;;;;;3.70;2.27;;;13.40;44.30;;;;;;4971699;28;20444;-71
2023/08/10 02:02:48;;;;;;;3.20;2.50;;;13.30;45.80;;;;;;4972613;28;20220;-71
2023/08/10 02:05:14;;;;;;;4.27;2.97;;;13.20;45.70;;;;;;4972968;28;20271;-71
2023/08/10 02:07:41;;;;;;;3.80;2.60;;;13.30;45.50;;;;;;4972827;28;20202;-70
2023/08/10 02:10:08;;;;;;;4.93;3.37;;;13.30;45.10;;;;;;4976669;28;20499;-71
2023/08/10 02:12:33;;;;;;;3.53;2.70;;;13.20;45.20;;;;;;4975187;28;20464;-71
2023/08/10 02:14:59;;;;;;;4.53;3.30;;;13.20;44.20;;;;;;4976797;28;20455;-71
2023/08/10 02:17:26;;;;;;;3.90;2.87;;;13.20;45.00;;;;;;4976755;28;20199;-71
2023/08/10 02:19:51;;;;;;;3.70;2.73;;;13.10;45.40;;;;;;4976681;28;20831;-71
2023/08/10 02:22:17;;;;;;;3.50;2.53;;;13.10;44.10;;;;;;4976128;28;20517;-71
2023/08/10 02:24:42;;;;;;;3.83;2.60;;;13.10;44.10;;;;;;4976535;28;20590;-71
2023/08/10 02:27:08;;;;;;;4.13;2.87;;;13.10;42.80;;;;;;4976537;28;20185;-71
2023/08/10 02:29:34;;;;;;;4.87;3.07;;;13.10;42.50;;;;;;4976494;28;20178;-71
2023/08/10 02:32:00;;;;;;;5.10;3.40;;;13.10;42.50;;;;;;4976228;28;20209;-71
2023/08/10 02:34:26;;;;;;;3.80;2.80;;;13.00;42.50;;;;;;4975182;28;20177;-72
2023/08/10 02:36:51;;;;;;;3.87;2.50;;;13.00;44.00;;;;;;4976305;28;20428;-71
2023/08/10 02:39:17;;;;;;;4.50;2.40;;;12.90;43.30;;;;;;4976324;28;20182;-72
2023/08/10 02:41:43;;;;;;;3.60;2.73;;;12.80;43.80;;;;;;4975904;28;20229;-71
2023/08/10 02:44:08;;;;;;;3.63;2.47;;;12.80;45.00;;;;;;4976144;28;20207;-70
2023/08/10 02:46:34;;;;;;;3.80;2.93;;;12.70;45.10;;;;;;4975011;28;20186;-71
2023/08/10 02:48:59;;;;;;;3.73;3.17;;;12.70;44.80;;;;;;4976024;28;20200;-71
2023/08/10 02:51:25;;;;;;;4.10;2.83;;;12.70;45.60;;;;;;4975937;28;20500;-71
2023/08/10 02:53:51;;;;;;;4.27;2.87;;;12.70;45.60;;;;;;4975811;28;20597;-71
2023/08/10 02:56:16;;;;;;;3.10;2.30;;;12.70;45.60;;;;;;4976002;28;20181;-71
2023/08/10 02:58:42;;;;;;;4.80;3.60;;;12.70;44.90;;;;;;4975897;28;20186;-71
2023/08/10 03:01:08;;;;;;;4.83;3.23;;;12.70;45.20;;;;;;4975804;28;20534;-70
2023/08/10 03:03:34;;;;;;;3.40;2.57;;;12.70;44.40;;;;;;4975578;28;20280;-71
2023/08/10 03:06:00;;;;;;;3.00;2.20;;;12.70;45.00;;;;;;4975686;28;20174;-71
2023/08/10 03:08:26;;;;;;;6.30;2.67;;;12.70;43.70;;;;;;4975761;28;20476;-71
2023/08/10 03:10:52;;;;;;;4.67;3.53;;;12.60;44.50;;;;;;4975679;28;20418;-70
2023/08/10 03:13:17;;;;;;;3.13;2.20;;;12.50;45.80;;;;;;4975430;28;20812;-71
2023/08/10 03:15:43;;;;;;;3.97;3.10;;;12.50;46.80;;;;;;4975579;28;20651;-71
2023/08/10 03:18:09;;;;;;;4.87;2.40;;;12.50;47.80;;;;;;4975533;28;20639;-71
2023/08/10 03:20:34;;;;;;;3.43;3.00;;;12.50;47.00;;;;;;4973638;28;20188;-71
2023/08/10 03:23:00;;;;;;;5.23;2.87;;;12.50;46.20;;;;;;4975042;28;20825;-71
2023/08/10 03:25:25;;;;;;;3.37;3.07;;;12.50;47.10;;;;;;4975464;28;20639;-71
2023/08/10 03:27:51;;;;;;;4.27;2.67;;;12.50;45.90;;;;;;4975403;28;20185;-71
2023/08/10 03:30:17;;;;;;;5.57;2.90;;;12.40;46.10;;;;;;4975493;28;20691;-71
2023/08/10 03:32:42;;;;;;;3.73;3.07;;;12.30;47.50;;;;;;4975240;28;20205;-71
2023/08/10 03:35:08;;;;;;;3.63;2.57;;;12.40;48.20;;;;;;4975597;28;20187;-72
2023/08/10 03:37:34;;;;;;;7.70;2.93;;;12.40;46.50;;;;;;4975501;28;20603;-70
2023/08/10 03:40:00;;;;;;;3.97;2.77;;;12.40;46.60;;;;;;4975230;28;20186;-71
2023/08/10 03:42:25;;;;;;;3.60;2.53;;;12.40;46.90;;;;;;4974857;28;20287;-71
2023/08/10 03:44:54;;;;;;;2.97;2.37;;;12.40;46.30;;;;;;4975205;28;20553;-71
2023/08/10 03:47:20;;;;;;;3.80;2.60;;;12.30;46.60;;;;;;4973747;28;20190;-70
2023/08/10 03:49:46;;;;;;;4.03;3.47;;;12.30;46.80;;;;;;4974974;28;20416;-70
2023/08/10 03:52:11;;;;;;;4.47;3.50;;;12.40;47.00;;;;;;4974658;28;20447;-71
2023/08/10 03:54:37;;;;;;;3.90;2.70;;;12.40;46.90;;;;;;4975262;28;20323;-71
2023/08/10 03:57:03;;;;;;;4.30;3.70;;;12.30;47.50;;;;;;4975211;28;20215;-71
2023/08/10 03:59:28;;;;;;;4.80;3.47;;;12.30;46.70;;;;;;4975363;28;20185;-72
2023/08/10 04:01:54;;;;;;;3.73;3.27;;;12.30;46.80;;;;;;4974925;28;20460;-71
2023/08/10 04:04:20;;;;;;;4.13;2.77;;;12.40;46.90;;;;;;4975312;28;20243;-72
2023/08/10 04:06:45;;;;;;;3.90;2.73;;;12.30;47.10;;;;;;4975050;28;20185;-71
2023/08/10 04:09:11;;;;;;;4.07;3.00;;;12.30;47.10;;;;;;4975497;28;20174;-72
2023/08/10 04:11:36;;;;;;;3.60;3.00;;;12.30;46.70;;;;;;4975079;28;20184;-71
2023/08/10 04:14:02;;;;;;;6.83;4.93;;;12.30;46.80;;;;;;4974987;28;20207;-72
2023/08/10 04:16:28;;;;;;;4.40;3.77;;;12.30;46.70;;;;;;4974832;28;20185;-71
2023/08/10 04:18:53;;;;;;;5.20;3.30;;;12.20;46.20;;;;;;4974685;28;20233;-72
2023/08/10 04:21:19;;;;;;;3.83;3.43;;;12.30;47.50;;;;;;4974557;28;20670;-71
2023/08/10 04:23:44;;;;;;;3.30;2.73;;;12.20;46.70;;;;;;4973241;28;20725;-71
2023/08/10 04:26:10;;;;;;;4.57;2.80;;;12.20;47.70;;;;;;4973915;28;20184;-71
2023/08/10 04:28:35;;;;;;;4.77;3.10;;;12.30;48.40;;;;;;4974235;28;20177;-70
2023/08/10 04:31:01;;;;;;;3.77;2.67;;;12.30;47.10;;;;;;4973271;28;20173;-70
2023/08/10 04:33:27;;;;;;;6.40;3.37;;;12.30;47.30;;;;;;4973918;28;20203;-71
2023/08/10 04:35:52;;;;;;;3.50;2.93;;;12.30;46.60;;;;;;4974150;28;20237;-71
2023/08/10 04:38:18;;;;;;;4.70;3.30;;;12.40;46.60;;;;;;4974245;28;20232;-70
2023/08/10 04:40:44;;;;;;;3.50;2.80;;;12.40;46.30;;;;;;4974033;28;20189;-71
2023/08/10 04:43:09;;;;;;;4.03;2.93;;;12.40;46.30;;;;;;4973693;28;20209;-71
2023/08/10 04:45:35;;;;;;;3.53;2.50;;;12.40;46.10;;;;;;4972783;28;20188;-71
2023/08/10 04:48:00;;;;;;;4.57;3.00;;;12.40;46.30;;;;;;4973811;28;20177;-70
2023/08/10 04:50:26;;;;;;;4.73;3.30;;;12.40;46.20;;;;;;4973927;28;20706;-70
2023/08/10 04:52:52;;;;;;;4.90;3.50;;;12.50;45.60;;;;;;4973616;28;20198;-71
2023/08/10 04:55:18;;;;;;;3.40;2.50;;;12.50;46.10;;;;;;4972562;28;20190;-71
2023/08/10 04:57:43;;;;;;;4.63;3.47;;;12.60;45.70;;;;;;4973856;28;20269;-71
2023/08/10 05:00:12;;;;;;;6.03;3.80;;;12.60;45.30;;;;;;4972900;28;20508;-71
2023/08/10 05:02:38;;;;;;;8.50;3.23;;;12.70;44.00;;;;;;4973410;28;20225;-70
2023/08/10 05:05:05;;;;;;;5.10;3.10;;;12.70;44.70;;;;;;4973708;28;20412;-70
2023/08/10 05:07:31;;;;;;;5.40;2.80;;;12.80;43.80;;;;;;4973842;28;20405;-70
2023/08/10 05:09:57;;;;;;;3.80;3.07;;;12.80;43.80;;;;;;4973576;28;20405;-70
2023/08/10 05:12:23;;;;;;;3.90;2.93;;;12.80;43.30;;;;;;4973267;28;20436;-70
2023/08/10 05:14:48;;;;;;;4.00;2.80;;;12.90;41.20;;;;;;4973428;28;20479;-70
2023/08/10 05:17:14;;;;;;;5.57;3.40;;;12.90;40.80;;;;;;4973459;28;20421;-71
2023/08/10 05:19:39;;;;;;;15.10;4.30;;;13.00;39.80;;;;;;4973332;28;20541;-70
2023/08/10 05:22:05;;;;;;;3.23;2.60;;;13.10;40.00;;;;;;4973107;28;20220;-71
2023/08/10 05:24:32;;;;;;;3.83;3.00;;;13.20;40.00;;;;;;4973340;28;20305;-70
2023/08/10 05:27:00;;;;;;;4.23;3.80;;;13.30;39.30;;;;;;4973320;28;20444;-70
2023/08/10 05:29:26;;;;;;;3.70;2.97;;;13.50;39.30;;;;;;4973342;28;20423;-71
2023/08/10 05:31:51;;;;;;;3.90;3.07;;;13.70;37.80;;;;;;4972991;28;20436;-71
2023/08/10 05:34:17;;;;;;;3.50;3.00;;;14.00;34.50;;;;;;4973423;28;20254;-70
2023/08/10 05:36:42;;;;;;;2.77;2.40;;;14.40;33.60;;;;;;4973459;28;20201;-71
2023/08/10 05:39:08;;;;;;;4.13;2.73;;;15.00;30.30;;;;;;4973138;28;20178;-71
2023/08/10 05:41:34;;;;;;;3.30;2.23;;;16.60;22.60;;;;;;4972825;28;20197;-71
2023/08/10 05:43:59;;;;;;;3.23;1.80;;;19.20;11.90;;;;;;4972720;28;20973;-71
2023/08/10 05:46:25;;;;;;;2.87;2.03;;;21.50;2.30;;;;;;4973057;28;20178;-70
2023/08/10 05:48:51;;;;;;;3.00;2.23;;;23.10;1.00;;;;;;4973039;28;20173;-71
2023/08/10 05:51:16;;;;;;;5.17;2.50;;;24.80;1.00;;;;;;4973168;28;20205;-72
2023/08/10 05:53:42;;;;;;;2.80;2.50;;;26.30;1.00;;;;;;4972831;28;20189;-71
2023/08/10 05:56:08;;;;;;;5.70;3.10;;;27.50;1.00;;;;;;4971612;28;20180;-71
2023/08/10 05:58:34;;;;;;;6.07;3.80;;;28.70;1.00;;;;;;4972954;28;20666;-70
2023/08/10 06:00:59;;;;;;;3.63;3.20;;;29.40;1.00;;;;;;4972868;28;20207;-71
2023/08/10 06:03:25;;;;;;;4.00;3.70;;;30.00;1.00;;;;;;4972542;28;20496;-72
2023/08/10 06:05:51;;;;;;;3.53;3.23;;;30.70;1.00;;;;;;4972837;28;20180;-71
2023/08/10 06:08:16;;;;;;;4.40;3.60;;;29.80;1.00;;;;;;4972924;28;20224;-71
2023/08/10 06:10:42;;;;;;;3.93;3.63;;;31.00;1.00;;;;;;4972823;28;20173;-71
2023/08/10 06:13:08;;;;;;;7.17;4.80;;;32.50;1.00;;;;;;4972531;28;20203;-70
2023/08/10 06:15:33;;;;;;;8.20;4.70;;;33.50;1.00;;;;;;4972647;28;20659;-71
2023/08/10 06:17:59;;;;;;;4.70;4.40;;;33.80;1.00;;;;;;4972717;28;20620;-71
2023/08/10 06:20:28;;;;;;;4.53;4.23;;;34.20;1.00;;;;;;4973046;28;20177;-71
2023/08/10 06:22:56;;;;;;;4.93;4.03;;;34.30;1.00;;;;;;4972381;28;20217;-71
2023/08/10 06:25:22;;;;;;;4.00;3.70;;;32.90;1.00;;;;;;4972668;28;20471;-71
2023/08/10 06:27:48;;;;;;;4.30;3.90;;;31.20;1.00;;;;;;4972542;28;20500;-70
2023/08/10 06:30:14;;;;;;;3.97;3.67;;;29.40;1.00;;;;;;4972622;28;20512;-72
2023/08/10 06:32:40;;;;;;;4.17;3.77;;;27.70;1.00;;;;;;4972249;28;20197;-72
2023/08/10 06:35:08;;;;;;;3.70;3.40;;;26.50;1.00;;;;;;4972677;28;20196;-71
2023/08/10 06:37:33;;;;;;;4.07;3.20;;;25.20;1.00;;;;;;4972619;28;20923;-71
2023/08/10 06:39:59;;;;;;;3.33;3.00;;;24.10;1.00;;;;;;4972403;28;20511;-71
2023/08/10 06:42:25;;;;;;;3.50;2.90;;;23.30;1.00;;;;;;4972165;28;20228;-71
2023/08/10 06:44:50;;;;;;;4.27;2.97;;;22.50;1.00;;;;;;4972479;28;20547;-72
2023/08/10 06:47:16;;;;;;;3.80;3.10;;;22.00;1.00;;;;;;4972596;28;20184;-71
2023/08/10 06:49:41;;;;;;;5.90;2.80;;;21.50;1.00;;;;;;4972661;28;20180;-71
2023/08/10 06:52:07;;;;;;;6.17;3.73;;;21.20;1.00;;;;;;4972254;28;20707;-71
2023/08/10 06:54:33;;;;;;;4.70;3.17;;;21.00;1.00;;;;;;4973772;28;20177;-72
2023/08/10 06:57:00;;;;;;;4.83;3.70;;;21.00;1.00;;;;;;4975894;28;20181;-71
2023/08/10 06:59:26;;;;;;;4.87;3.50;;;20.80;1.00;;;;;;4975889;28;20185;-71
2023/08/10 07:01:51;;;;;;;6.40;4.10;;;20.70;1.00;;;;;;4975415;28;20457;-71
2023/08/10 07:04:20;;;;;;;7.53;3.70;;;20.50;1.00;;;;;;4975748;28;20177;-71
2023/08/10 07:06:46;;;;;;;3.27;2.97;;;20.50;1.00;;;;;;4974665;28;20619;-71
2023/08/10 07:09:11;;;;;;;4.30;3.90;;;20.70;1.00;;;;;;4975721;28;20417;-71
2023/08/10 07:11:37;;;;;;;6.67;4.17;;;20.60;1.00;;;;;;4975384;28;20181;-72
2023/08/10 07:14:03;;;;;;;14.00;3.80;;;20.50;1.00;;;;;;4974356;28;20201;-72
2023/08/10 07:16:29;;;;;;;3.33;3.00;;;20.60;1.00;;;;;;4976191;28;20261;-72
2023/08/10 07:18:54;;;;;;;5.00;3.60;;;20.60;1.00;;;;;;4976232;28;20409;-72
2023/08/10 07:21:20;;;;;;;4.93;3.80;;;20.60;1.00;;;;;;4975937;28;20177;-72
2023/08/10 07:23:46;;;;;;;3.87;3.43;;;20.40;1.00;;;;;;4983460;23;20264;-71
2023/08/10 07:26:12;;;;;;;4.20;3.43;;;20.60;1.00;;;;;;4956160;29;20174;-73
2023/08/10 07:28:38;;;;;;;5.40;4.40;;;20.80;1.00;;;;;;4956093;29;20472;-74
2023/08/10 07:31:03;;;;;;;3.70;2.80;;;21.00;1.00;;;;;;4956109;29;20178;-73
2023/08/10 07:33:29;;;;;;;4.33;3.20;;;21.30;1.00;;;;;;4955863;29;20561;-73
2023/08/10 07:35:55;;;;;;;8.10;3.37;;;21.40;1.00;;;;;;4956039;29;20182;-72
2023/08/10 07:38:21;;;;;;;4.27;3.30;;;21.40;1.00;;;;;;4954683;29;20428;-73
2023/08/10 07:40:47;;;;;;;4.13;3.10;;;21.80;1.00;;;;;;4955884;29;20174;-72
2023/08/10 07:43:13;;;;;;;5.13;3.40;;;22.20;1.00;;;;;;4955762;29;20217;-72
2023/08/10 07:45:39;;;;;;;4.40;3.03;;;22.30;1.00;;;;;;4954471;29;20425;-73
2023/08/10 07:48:05;;;;;;;4.00;3.63;;;22.70;1.00;;;;;;4954486;29;20222;-73
2023/08/10 07:50:31;;;;;;;4.87;4.17;;;23.10;1.00;;;;;;4955763;29;20448;-72
2023/08/10 07:52:57;;;;;;;6.17;3.17;;;23.50;1.00;;;;;;4955353;29;20237;-71
2023/08/10 07:55:22;;;;;;;4.03;3.63;;;23.90;1.00;;;;;;4955475;29;20461;-72
2023/08/10 07:57:49;;;;;;;3.50;3.20;;;23.70;1.00;;;;;;4955515;29;20241;-71
2023/08/10 08:00:15;;;;;;;4.10;3.27;;;23.80;1.00;;;;;;4955459;29;20178;-71
2023/08/10 08:02:41;;;;;;;3.40;3.10;;;23.70;1.00;;;;;;4955053;29;20457;-72
2023/08/10 08:05:07;;;;;;;4.20;3.17;;;23.70;1.00;;;;;;4955462;28;20170;-71
2023/08/10 08:07:32;;;;;;;4.53;2.87;;;23.70;1.00;;;;;;4955472;29;20178;-73
2023/08/10 08:09:59;;;;;;;3.43;3.07;;;23.40;1.00;;;;;;4955492;29;20784;-73
2023/08/10 08:12:26;;;;;;;3.70;3.37;;;23.60;1.00;;;;;;4955015;29;20457;-73
2023/08/10 08:14:52;;;;;;;4.43;3.93;;;23.80;1.00;;;;;;4955255;29;20815;-73
2023/08/10 08:17:18;;;;;;;4.63;3.90;;;24.50;1.00;;;;;;4955162;29;20784;-73
2023/08/10 08:19:44;;;;;;;5.37;3.57;;;25.30;1.00;;;;;;4955073;29;20506;-73
2023/08/10 08:22:10;;;;;;;12.43;4.50;;;26.00;1.00;;;;;;4954534;29;20615;-73
2023/08/10 08:24:35;;;;;;;6.50;4.00;;;26.30;1.00;;;;;;4955084;29;20186;-73
2023/08/10 08:27:01;;;;;;;4.40;3.80;;;26.50;1.00;;;;;;4955030;29;20174;-73
2023/08/10 08:29:26;;;;;;;6.60;4.20;;;26.60;1.00;;;;;;4955137;29;20522;-73
2023/08/10 08:31:52;;;;;;;4.93;3.93;;;26.80;1.00;;;;;;4954697;28;20873;-73
2023/08/10 08:34:17;;;;;;;4.23;3.83;;;27.20;1.00;;;;;;4954758;29;20209;-73
2023/08/10 08:36:44;;;;;;;4.30;3.73;;;26.90;1.00;;;;;;4954953;29;20597;-73
2023/08/10 08:39:10;;;;;;;4.40;4.10;;;27.00;1.00;;;;;;4954723;29;20178;-73
2023/08/10 08:41:37;;;;;;;6.90;3.70;;;27.20;1.00;;;;;;4953141;28;20505;-73
2023/08/10 08:44:07;;;;;;;5.43;4.70;;;27.90;1.00;;;;;;4953347;29;20240;-73
2023/08/10 08:46:38;;;;;;;5.17;4.37;;;28.90;1.00;;;;;;4954716;29;20455;-73
2023/08/10 08:49:05;;;;;;;5.80;4.90;;;28.50;1.00;;;;;;4954671;29;20428;-73
2023/08/10 08:51:31;;;;;;;4.87;4.47;;;28.60;1.00;;;;;;4954907;29;20517;-73
2023/08/10 08:54:00;;;;;;;5.30;4.80;;;28.40;1.00;;;;;;4954508;29;20437;-74
2023/08/10 08:56:26;;;;;;;4.83;4.43;;;29.60;1.00;;;;;;4954568;29;20783;-73
2023/08/10 08:58:52;;;;;;;4.10;3.80;;;30.00;1.00;;;;;;4954517;29;20421;-73
2023/08/10 09:01:19;;;;;;;5.07;4.67;;;31.50;1.00;;;;;;4954426;29;20410;-73
2023/08/10 09:03:45;;;;;;;4.97;4.50;;;32.20;1.00;;;;;;4954218;29;20476;-73
2023/08/10 09:06:11;;;;;;;4.30;4.00;;;32.30;1.00;;;;;;4954338;29;20496;-73
2023/08/10 09:08:38;;;;;;;5.20;4.30;;;33.00;1.00;;;;;;4954514;29;20516;-73
2023/08/10 09:11:05;;;;;;;4.20;3.90;;;31.60;1.00;;;;;;4954398;29;20178;-73
2023/08/10 09:13:31;;;;;;;4.30;4.00;;;30.10;1.00;;;;;;4953773;29;20445;-73
2023/08/10 09:16:12;;;;;;;4.60;4.20;;;28.10;1.00;;;;;;4953117;29;20850;-73
2023/08/10 09:18:40;;;;;;;5.10;4.03;;;26.30;1.00;;;;;;4953741;28;20555;-72
2023/08/10 09:21:19;;;;;;;4.87;3.43;;;25.60;1.00;;;;;;4952932;28;20433;-73
2023/08/10 09:23:47;;;;;;;5.47;3.80;;;24.90;1.00;;;;;;4953817;29;20453;-73
2023/08/10 09:26:16;;;;;;;5.07;3.63;;;24.50;1.00;;;;;;4954096;29;20413;-73
2023/08/10 09:28:42;;;;;;;4.90;4.00;;;24.20;1.00;;;;;;4954157;29;20405;-73
2023/08/10 09:31:09;;;;;;;4.33;3.93;;;23.70;1.00;;;;;;4954054;29;20416;-73
2023/08/10 09:33:35;;;;;;;4.10;3.70;;;23.30;1.00;;;;;;4953692;29;20203;-73
2023/08/10 09:36:03;;;;;;;3.43;3.13;;;23.30;1.00;;;;;;4953995;29;20420;-73
2023/08/10 09:38:29;;;;;;;4.43;3.40;;;23.00;1.00;;;;;;4953938;29;20413;-73
2023/08/10 09:41:14;;;;;;;6.73;3.63;;;23.00;1.00;;;;;;4952930;29;20418;-73
2023/08/10 09:43:41;;;;;;;4.80;4.33;;;23.00;1.00;;;;;;4954454;29;20292;-73
2023/08/10 09:46:09;;;;;;;4.30;3.63;;;23.00;1.00;;;;;;4953494;29;20422;-73
2023/08/10 09:48:40;;;;;;;5.37;4.03;;;22.90;1.00;;;;;;4954356;28;20425;-73
2023/08/10 09:51:07;;;;;;;4.93;4.43;;;22.70;1.00;;;;;;4954571;29;20472;-72
2023/08/10 09:53:33;;;;;;;5.73;3.30;;;22.50;1.00;;;;;;4954020;29;20521;-73
2023/08/10 09:56:00;;;;;;;3.97;3.50;;;22.60;1.00;;;;;;4954028;29;20441;-72
2023/08/10 09:58:27;;;;;;;3.50;2.80;;;22.80;1.00;;;;;;4953912;29;20421;-73
2023/08/10 10:00:53;;;;;;;4.93;4.50;;;23.00;1.00;;;;;;4954204;29;20418;-73
2023/08/10 10:03:20;;;;;;;4.17;3.80;;;23.20;1.00;;;;;;4953418;29;20978;-73
2023/08/10 10:05:48;;;;;;;5.07;4.20;;;23.20;1.00;;;;;;4953610;29;20166;-73
2023/08/10 10:08:14;;;;;;;4.10;3.80;;;23.30;1.00;;;;;;4953830;29;20417;-74
2023/08/10 10:10:45;;;;;;;3.50;3.30;;;23.30;1.00;;;;;;4953646;29;20417;-72
2023/08/10 10:13:15;;;;;;;3.80;3.50;;;23.40;1.00;;;;;;4953366;29;20468;-72
2023/08/10 10:15:45;;;;;;;4.17;3.83;;;23.30;1.00;;;;;;4953714;29;20422;-72
2023/08/10 10:18:11;;;;;;;4.60;4.20;;;23.50;1.00;;;;;;4953703;29;20453;-72
2023/08/10 10:20:43;;;;;;;4.30;3.90;;;23.30;1.00;;;;;;4953858;29;20417;-72
2023/08/10 10:23:18;;;;;;;4.20;3.90;;;23.40;1.00;;;;;;4953253;29;20499;-72
2023/08/10 10:26:06;;;;;;;4.57;4.00;;;23.40;1.00;;;;;;4953754;29;20414;-72
2023/08/10 10:28:33;;;;;;;5.47;4.03;;;23.40;1.00;;;;;;4953834;28;20413;-72
2023/08/10 10:31:04;;;;;;;6.13;4.30;;;23.40;1.00;;;;;;4957085;28;20754;-72
2023/08/10 10:33:31;;;;;;;7.33;4.20;;;23.30;1.00;;;;;;4956814;29;20457;-72
2023/08/10 10:36:11;;;;;;;4.43;3.97;;;23.30;1.00;;;;;;4957156;29;20425;-72
2023/08/10 10:38:41;;;;;;;4.17;3.77;;;23.30;1.00;;;;;;4957151;29;20413;-72
2023/08/10 10:41:14;;;;;;;4.47;4.07;;;23.40;1.00;;;;;;4957222;29;20421;-72
2023/08/10 10:43:40;;;;;;;5.30;3.50;;;23.30;1.00;;;;;;4956818;29;20986;-72
2023/08/10 10:46:05;;;;;;;3.87;3.57;;;23.40;1.00;;;;;;4957510;29;20414;-73
2023/08/10 10:48:36;;;;;;;4.50;4.07;;;23.40;1.00;;;;;;4957300;29;20191;-73
2023/08/10 10:51:03;;;;;;;4.70;4.30;;;23.50;1.00;;;;;;4957300;29;20182;-73
2023/08/10 10:53:29;;;;;;;4.10;3.80;;;23.50;1.00;;;;;;4956412;29;20483;-74
2023/08/10 10:55:56;;;;;;;4.80;4.50;;;23.60;1.00;;;;;;4957272;29;20425;-73
2023/08/10 10:58:25;;;;;;;4.27;3.97;;;23.60;1.00;;;;;;4957112;29;20424;-73
2023/08/10 11:00:51;;;;;;;4.93;4.23;;;23.90;1.00;;;;;;4958455;29;20782;-73
2023/08/10 11:03:19;;;;;;;5.07;4.67;;;24.00;1.00;;;;;;4956824;29;20472;-71
2023/08/10 11:05:45;;;;;;;4.30;4.00;;;24.10;1.00;;;;;;4955275;29;20191;-72
2023/08/10 11:08:12;;;;;;;7.73;4.20;;;24.10;1.00;;;;;;4957321;29;20963;-72
2023/08/10 11:10:40;;;;;;;4.30;3.93;;;24.10;1.00;;;;;;4956678;29;20265;-72
2023/08/10 11:13:07;;;;;;;4.83;4.40;;;24.20;1.00;;;;;;4956375;29;20967;-71
2023/08/10 11:15:34;;;;;;;5.23;4.37;;;24.20;1.00;;;;;;4957171;29;20439;-72
2023/08/10 11:18:00;;;;;;;4.93;4.53;;;24.20;1.00;;;;;;4955273;28;20442;-74
2023/08/10 11:20:26;;;;;;;5.20;4.80;;;24.20;1.00;;;;;;4956891;29;20509;-72
2023/08/10 11:22:52;;;;;;;4.33;4.03;;;24.20;1.00;;;;;;4956612;29;20210;-72
2023/08/10 11:25:24;;;;;;;4.87;4.57;;;24.20;1.00;;;;;;4956414;29;20410;-72
2023/08/10 11:27:52;;;;;;;5.07;4.77;;;24.10;1.00;;;;;;4954809;29;20480;-73
2023/08/10 11:30:19;;;;;;;4.50;4.20;;;24.20;1.00;;;;;;4956084;29;20833;-72
2023/08/10 11:32:49;;;;;;;5.20;4.90;;;24.40;1.00;;;;;;4955876;29;20512;-72
2023/08/10 11:35:18;;;;;;;5.07;4.67;;;24.60;1.00;;;;;;4956121;29;20417;-73
2023/08/10 11:37:44;;;;;;;4.50;4.20;;;24.70;1.00;;;;;;4956234;29;20418;-72
2023/08/10 11:40:15;;;;;;;4.87;4.07;;;24.70;1.00;;;;;;4955699;28;20425;-73
2023/08/10 11:42:43;;;;;;;4.77;4.47;;;24.90;1.00;;;;;;4955490;29;20472;-73
2023/08/10 11:45:16;;;;;;;5.33;4.83;;;25.00;1.00;;;;;;4956045;29;20432;-73
2023/08/10 11:47:44;;;;;;;5.80;5.30;;;25.20;1.00;;;;;;4955861;29;20418;-73
2023/08/10 11:50:13;;;;;;;5.13;4.73;;;25.20;1.00;;;;;;4956044;29;20417;-73
2023/08/10 11:52:39;;;;;;;5.20;4.80;;;25.20;1.00;;;;;;4955660;29;20477;-73
2023/08/10 11:55:12;;;;;;;5.27;4.97;;;25.30;1.00;;;;;;4955751;29;20517;-72
2023/08/10 11:57:42;;;;;;;4.90;4.50;;;25.40;1.00;;;;;;4955830;29;20414;-73
2023/08/10 12:00:22;;;;;;;4.70;4.40;;;25.50;1.00;;;;;;4956105;29;20433;-73
2023/08/10 12:03:11;;;;;;;5.10;4.77;;;25.30;1.00;;;;;;4954014;28;20480;-73
2023/08/10 12:05:37;;;;;;;5.33;4.93;;;25.30;1.00;;;;;;4955672;29;20978;-73
2023/08/10 12:08:24;;;;;;;5.20;4.80;;;25.40;1.00;;;;;;4955515;29;20422;-73
2023/08/10 12:11:07;;;;;;;5.60;5.20;;;25.60;1.00;;;;;;4945926;28;20269;-73
2023/08/10 12:13:46;;;;;;;5.93;5.47;;;25.70;1.00;;;;;;4955208;29;20440;-73
2023/08/10 12:16:12;;;;;;;5.20;4.80;;;25.90;1.00;;;;;;4955467;29;20414;-73
2023/08/10 12:18:38;;;;;;;4.67;4.37;;;26.10;1.00;;;;;;4955431;29;20916;-73
2023/08/10 12:21:03;;;;;;;5.30;4.90;;;26.10;1.00;;;;;;4955369;29;20908;-73
2023/08/10 12:23:29;;;;;;;8.23;4.93;;;25.90;1.00;;;;;;4954700;29;20469;-73
2023/08/10 12:25:55;;;;;;;5.50;5.07;;;25.80;1.00;;;;;;4954077;29;20178;-73
2023/08/10 12:28:21;;;;;;;5.77;5.17;;;25.70;1.00;;;;;;4955067;29;20264;-73
2023/08/10 12:30:48;;;;;;;4.97;4.67;;;25.60;1.00;;;;;;4955296;29;20201;-72
2023/08/10 12:33:14;;;;;;;5.20;4.80;;;25.60;1.00;;;;;;4954685;29;20528;-74
2023/08/10 12:35:40;;;;;;;5.47;5.07;;;25.70;1.00;;;;;;4955047;29;20449;-71
2023/08/10 12:38:07;;;;;;;5.07;4.77;;;25.70;1.00;;;;;;4953645;29;20181;-74
2023/08/10 12:40:33;;;;;;;5.17;4.83;;;25.60;1.00;;;;;;4955070;29;20723;-74
2023/08/10 12:42:59;;;;;;;5.30;4.80;;;25.60;1.00;;;;;;4954574;29;20469;-74
2023/08/10 12:45:25;;;;;;;5.00;4.70;;;25.60;1.00;;;;;;4955020;29;20758;-74
2023/08/10 12:47:52;;;;;;;4.90;4.60;;;25.70;1.00;;;;;;4955660;28;20413;-73
2023/08/10 12:50:18;;;;;;;6.03;5.43;;;25.60;1.00;;;;;;4955529;29;20409;-73
2023/08/10 12:52:46;;;;;;;5.10;4.70;;;25.70;1.00;;;;;;4954132;28;20433;-73